createdAt,value
2022-11-12T00:00:20.119Z,101513.53
2022-11-12T00:00:51.765Z,101520.69
2022-11-12T00:01:23.341Z,101522.00
2022-11-12T00:01:54.996Z,101519.91
2022-11-12T00:02:26.682Z,101519.50
2022-11-12T00:02:58.427Z,101520.94
2022-11-12T00:03:29.984Z,101518.84
2022-11-12T00:04:01.643Z,101520.88
2022-11-12T00:04:33.203Z,101519.31
2022-11-12T00:05:04.937Z,101513.59
2022-11-12T00:05:36.471Z,101514.06
2022-11-12T00:06:08.026Z,101520.59
2022-11-12T00:06:39.604Z,101519.69
2022-11-12T00:07:11.326Z,101511.03
2022-11-12T00:07:42.925Z,101516.81
2022-11-12T00:08:14.556Z,101515.69
2022-11-12T00:08:46.181Z,101512.78
2022-11-12T00:09:17.734Z,101524.22
2022-11-12T00:09:49.428Z,101519.00
2022-11-12T00:10:21.080Z,101517.09
2022-11-12T00:10:52.644Z,101522.22
2022-11-12T00:11:24.323Z,101521.28
2022-11-12T00:11:55.878Z,101519.47
2022-11-12T00:12:27.506Z,101520.19
2022-11-12T00:12:59.320Z,101524.59
2022-11-12T00:13:31.050Z,101524.41
2022-11-12T00:14:02.556Z,101519.06
2022-11-12T00:14:34.196Z,101527.06
2022-11-12T00:15:06.005Z,101521.72
2022-11-12T00:15:37.656Z,101526.09
2022-11-12T00:16:09.260Z,101526.97
2022-11-12T00:16:40.872Z,101518.09
2022-11-12T00:17:12.382Z,101521.53
2022-11-12T00:17:43.984Z,101521.63
2022-11-12T00:18:15.536Z,101526.09
2022-11-12T00:18:47.117Z,101526.19
2022-11-12T00:19:18.645Z,101519.06
2022-11-12T00:19:50.201Z,101529.72
2022-11-12T00:20:21.789Z,101518.97
2022-11-12T00:20:53.373Z,101519.81
2022-11-12T00:21:24.932Z,101520.75
2022-11-12T00:21:56.483Z,101523.41
2022-11-12T00:22:28.106Z,101526.09
2022-11-12T00:22:59.690Z,101525.25
2022-11-12T00:23:31.315Z,101528.84
2022-11-12T00:24:02.904Z,101523.53
2022-11-12T00:24:34.492Z,101522.69
2022-11-12T00:25:06.404Z,101532.38
2022-11-12T00:25:37.915Z,101531.41
2022-11-12T00:26:09.482Z,101526.09
2022-11-12T00:26:41.177Z,101522.56
2022-11-12T00:27:12.748Z,101530.56
2022-11-12T00:27:44.352Z,101528.00
2022-11-12T00:28:16.015Z,101528.00
2022-11-12T00:28:47.648Z,101522.56
2022-11-12T00:29:19.263Z,101523.53
2022-11-12T00:29:50.784Z,101527.16
2022-11-12T00:30:22.449Z,101519.16
2022-11-12T00:30:54.011Z,101528.00
2022-11-12T00:31:25.515Z,101534.19
2022-11-12T00:31:57.280Z,101532.38
2022-11-12T00:32:28.911Z,101531.50
2022-11-12T00:33:03.814Z,101529.81
2022-11-12T00:33:38.709Z,101530.66
2022-11-12T00:34:10.341Z,101536.94
2022-11-12T00:34:41.960Z,101529.72
2022-11-12T00:35:14.252Z,101530.56
2022-11-12T00:35:45.970Z,101531.41
2022-11-12T00:36:17.499Z,101538.66
2022-11-12T00:36:49.091Z,101537.72
2022-11-12T00:37:20.697Z,101526.19
2022-11-12T00:37:55.335Z,101533.34
2022-11-12T00:38:27.192Z,101535.91
2022-11-12T00:38:58.956Z,101532.28
2022-11-12T00:39:30.586Z,101534.09
2022-11-12T00:40:02.130Z,101543.06
2022-11-12T00:40:33.794Z,101535.91
2022-11-12T00:41:05.372Z,101545.72
2022-11-12T00:41:36.939Z,101542.06
2022-11-12T00:42:08.558Z,101538.47
2022-11-12T00:42:40.101Z,101542.94
2022-11-12T00:43:11.747Z,101543.81
2022-11-12T00:43:43.274Z,101541.22
2022-11-12T00:44:14.870Z,101541.22
2022-11-12T00:44:46.372Z,101544.75
2022-11-12T00:45:18.367Z,101544.75
2022-11-12T00:45:49.952Z,101551.03
2022-11-12T00:46:21.650Z,101545.72
2022-11-12T00:46:53.203Z,101544.75
2022-11-12T00:47:24.749Z,101542.06
2022-11-12T00:47:56.441Z,101542.94
2022-11-12T00:48:28.313Z,101544.75
2022-11-12T00:49:00.319Z,101546.56
2022-11-12T00:49:31.857Z,101542.06
2022-11-12T00:50:03.662Z,101552.75
2022-11-12T00:50:35.146Z,101545.72
2022-11-12T00:51:06.806Z,101545.72
2022-11-12T00:51:38.377Z,101551.03
2022-11-12T00:52:09.993Z,101547.41
2022-11-12T00:52:41.501Z,101548.28
2022-11-12T00:53:13.060Z,101549.22
2022-11-12T00:53:47.203Z,101550.94
2022-11-12T00:54:18.895Z,101551.78
2022-11-12T00:54:50.507Z,101547.41
2022-11-12T00:55:22.123Z,101544.75
2022-11-12T00:55:53.739Z,101548.28
2022-11-12T00:56:25.295Z,101549.97
2022-11-12T00:56:56.854Z,101549.13
2022-11-12T00:57:28.529Z,101552.75
2022-11-12T00:58:00.135Z,101551.78
2022-11-12T00:58:31.994Z,101549.13
2022-11-12T00:59:03.753Z,101551.78
2022-11-12T00:59:35.313Z,101545.63
2022-11-12T01:00:07.224Z,101552.75
2022-11-12T01:00:38.865Z,101548.28
2022-11-12T01:01:15.013Z,101551.78
2022-11-12T01:01:46.542Z,101557.03
2022-11-12T01:02:18.086Z,101557.97
2022-11-12T01:02:51.444Z,101556.28
2022-11-12T01:03:23.236Z,101556.19
2022-11-12T01:03:54.919Z,101559.78
2022-11-12T01:04:26.521Z,101556.28
2022-11-12T01:04:58.081Z,101558.06
2022-11-12T01:05:29.620Z,101551.88
2022-11-12T01:06:01.995Z,101564.28
2022-11-12T01:06:33.650Z,101558.94
2022-11-12T01:07:05.349Z,101562.44
2022-11-12T01:07:36.967Z,101562.34
2022-11-12T01:08:08.541Z,101557.03
2022-11-12T01:08:40.225Z,101561.50
2022-11-12T01:09:11.755Z,101557.13
2022-11-12T01:09:43.370Z,101559.78
2022-11-12T01:10:14.895Z,101556.19
2022-11-12T01:10:46.454Z,101561.50
2022-11-12T01:11:24.843Z,101556.19
2022-11-12T01:11:56.444Z,101557.13
2022-11-12T01:12:27.961Z,101554.47
2022-11-12T01:12:59.586Z,101564.19
2022-11-12T01:13:31.113Z,101553.63
2022-11-12T01:14:03.966Z,101558.06
2022-11-12T01:14:35.973Z,101555.31
2022-11-12T01:15:07.920Z,101560.63
2022-11-12T01:15:42.352Z,101558.84
2022-11-12T01:16:17.441Z,101561.50
2022-11-12T01:16:49.215Z,101563.31
2022-11-12T01:17:20.765Z,101566.84
2022-11-12T01:17:52.372Z,101566.84
2022-11-12T01:18:24.462Z,101568.53
2022-11-12T01:18:57.121Z,101557.88
2022-11-12T01:19:28.760Z,101563.19
2022-11-12T01:20:00.346Z,101564.03
2022-11-12T01:20:31.990Z,101564.94
2022-11-12T01:21:03.987Z,101565.31
2022-11-12T01:21:37.502Z,101564.00
2022-11-12T01:22:09.230Z,101567.22
2022-11-12T01:22:40.798Z,101559.97
2022-11-12T01:23:12.356Z,101560.09
2022-11-12T01:23:43.951Z,101555.59
2022-11-12T01:24:15.543Z,101565.50
2022-11-12T01:24:50.245Z,101560.09
2022-11-12T01:25:21.885Z,101567.31
2022-11-12T01:25:53.641Z,101571.63
2022-11-12T01:26:25.282Z,101563.94
2022-11-12T01:26:56.923Z,101570.75
2022-11-12T01:27:28.474Z,101569.81
2022-11-12T01:28:00.032Z,101574.69
2022-11-12T01:28:31.636Z,101573.91
2022-11-12T01:29:03.449Z,101570.41
2022-11-12T01:29:35.052Z,101569.56
2022-11-12T01:30:06.983Z,101576.28
2022-11-12T01:30:38.589Z,101574.31
2022-11-12T01:31:16.273Z,101573.25
2022-11-12T01:31:47.872Z,101572.59
2022-11-12T01:32:19.382Z,101556.63
2022-11-12T01:32:50.923Z,101557.81
2022-11-12T01:33:22.500Z,101563.94
2022-11-12T01:33:54.881Z,101558.41
2022-11-12T01:34:26.579Z,101560.66
2022-11-12T01:34:58.141Z,101564.00
2022-11-12T01:35:29.677Z,101564.00
2022-11-12T01:36:01.207Z,101565.50
2022-11-12T01:36:33.836Z,101561.25
2022-11-12T01:37:05.442Z,101569.13
2022-11-12T01:37:37.113Z,101565.50
2022-11-12T01:38:08.683Z,101569.81
2022-11-12T01:38:40.491Z,101563.59
2022-11-12T01:39:12.113Z,101566.25
2022-11-12T01:39:43.682Z,101575.97
2022-11-12T01:40:15.387Z,101570.66
2022-11-12T01:40:46.910Z,101570.66
2022-11-12T01:41:19.892Z,101569.81
2022-11-12T01:41:51.508Z,101575.97
2022-11-12T01:42:28.412Z,101569.81
2022-11-12T01:43:00.014Z,101572.56
2022-11-12T01:43:31.675Z,101560.19
2022-11-12T01:44:06.983Z,101561.91
2022-11-12T01:44:39.450Z,101571.69
2022-11-12T01:45:14.324Z,101562.84
2022-11-12T01:45:46.676Z,101552.19
2022-11-12T01:46:22.218Z,101563.69
2022-11-12T01:46:53.723Z,101561.91
2022-11-12T01:47:25.853Z,101560.19
2022-11-12T01:47:57.515Z,101554.00
2022-11-12T01:48:30.548Z,101545.91
2022-11-12T01:49:02.754Z,101552.94
2022-11-12T01:49:56.185Z,101552.09
2022-11-12T01:50:30.994Z,101561.03
2022-11-12T01:51:02.622Z,101552.19
2022-11-12T01:51:34.712Z,101560.19
2022-11-12T01:52:18.409Z,101548.56
2022-11-12T01:52:50.540Z,101551.34
2022-11-12T01:53:22.424Z,101553.91
2022-11-12T01:53:54.646Z,101551.25
2022-11-12T01:54:26.204Z,101544.19
2022-11-12T01:55:00.342Z,101560.19
2022-11-12T01:55:34.299Z,101553.91
2022-11-12T01:56:06.132Z,101552.19
2022-11-12T01:56:41.760Z,101554.84
2022-11-12T01:57:14.011Z,101554.75
2022-11-12T01:57:46.898Z,101551.25
2022-11-12T01:58:19.016Z,101553.91
2022-11-12T01:58:52.501Z,101555.59
2022-11-12T01:59:25.514Z,101556.56
2022-11-12T01:59:58.316Z,101563.59
2022-11-12T02:00:29.920Z,101563.59
2022-11-12T02:01:01.579Z,101558.25
2022-11-12T02:01:33.211Z,101561.03
2022-11-12T02:02:04.896Z,101558.25
2022-11-12T02:02:36.675Z,101564.56
2022-11-12T02:03:10.874Z,101564.56
2022-11-12T02:03:42.424Z,101561.91
2022-11-12T02:04:13.942Z,101562.84
2022-11-12T02:04:45.515Z,101560.09
2022-11-12T02:05:17.158Z,101559.97
2022-11-12T02:05:49.496Z,101565.31
2022-11-12T02:06:21.027Z,101563.59
2022-11-12T02:06:52.625Z,101565.31
2022-11-12T02:07:24.188Z,101568.06
2022-11-12T02:07:55.764Z,101567.22
2022-11-12T02:08:27.582Z,101574.25
2022-11-12T02:08:59.320Z,101567.13
2022-11-12T02:09:30.988Z,101568.81
2022-11-12T02:10:02.677Z,101565.31
2022-11-12T02:10:34.559Z,101568.91
2022-11-12T02:11:16.052Z,101561.91
2022-11-12T02:11:47.652Z,101567.22
2022-11-12T02:12:19.328Z,101562.75
2022-11-12T02:12:51.150Z,101560.09
2022-11-12T02:13:22.707Z,101553.91
2022-11-12T02:13:54.254Z,101561.91
2022-11-12T02:14:25.827Z,101554.66
2022-11-12T02:14:57.459Z,101561.03
2022-11-12T02:15:29.156Z,101560.94
2022-11-12T02:16:00.676Z,101552.94
2022-11-12T02:16:36.297Z,101554.75
2022-11-12T02:17:07.931Z,101555.59
2022-11-12T02:17:39.501Z,101556.56
2022-11-12T02:18:11.014Z,101554.84
2022-11-12T02:18:42.609Z,101561.03
2022-11-12T02:19:14.884Z,101559.25
2022-11-12T02:19:46.745Z,101558.25
2022-11-12T02:20:18.369Z,101560.94
2022-11-12T02:20:56.027Z,101558.25
2022-11-12T02:21:27.718Z,101556.56
2022-11-12T02:21:59.335Z,101559.25
2022-11-12T02:22:30.968Z,101561.03
2022-11-12T02:23:02.726Z,101554.75
2022-11-12T02:23:34.280Z,101555.69
2022-11-12T02:24:06.646Z,101553.91
2022-11-12T02:24:38.231Z,101550.25
2022-11-12T02:25:11.774Z,101563.69
2022-11-12T02:25:43.398Z,101558.25
2022-11-12T02:26:14.965Z,101559.25
2022-11-12T02:26:47.424Z,101561.91
2022-11-12T02:27:19.155Z,101555.69
2022-11-12T02:27:51.142Z,101557.41
2022-11-12T02:28:22.780Z,101554.66
2022-11-12T02:28:54.396Z,101564.47
2022-11-12T02:29:25.983Z,101556.56
2022-11-12T02:29:57.555Z,101552.94
2022-11-12T02:30:36.643Z,101553.91
2022-11-12T02:31:08.246Z,101556.56
2022-11-12T02:31:39.806Z,101556.56
2022-11-12T02:32:11.577Z,101555.59
2022-11-12T02:32:43.211Z,101560.94
2022-11-12T02:33:14.800Z,101554.75
2022-11-12T02:33:46.401Z,101561.03
2022-11-12T02:34:18.023Z,101553.91
2022-11-12T02:34:49.602Z,101558.25
2022-11-12T02:35:21.209Z,101558.25
2022-11-12T02:35:52.827Z,101556.56
2022-11-12T02:36:24.495Z,101554.66
2022-11-12T02:36:56.042Z,101558.25
2022-11-12T02:37:27.577Z,101547.69
2022-11-12T02:37:59.303Z,101559.13
2022-11-12T02:38:30.891Z,101559.25
2022-11-12T02:39:02.578Z,101557.41
2022-11-12T02:39:34.137Z,101561.91
2022-11-12T02:40:06.171Z,101561.91
2022-11-12T02:40:37.944Z,101553.03
2022-11-12T02:41:09.511Z,101553.91
2022-11-12T02:41:41.147Z,101560.09
2022-11-12T02:42:12.731Z,101552.09
2022-11-12T02:42:44.312Z,101560.94
2022-11-12T02:43:15.896Z,101555.69
2022-11-12T02:43:47.392Z,101558.25
2022-11-12T02:44:18.940Z,101554.75
2022-11-12T02:44:50.485Z,101557.41
2022-11-12T02:45:22.093Z,101559.13
2022-11-12T02:45:53.683Z,101556.56
2022-11-12T02:46:25.273Z,101560.94
2022-11-12T02:46:57.183Z,101560.94
2022-11-12T02:47:29.200Z,101561.81
2022-11-12T02:48:00.732Z,101557.41
2022-11-12T02:48:32.309Z,101556.56
2022-11-12T02:49:03.879Z,101563.59
2022-11-12T02:49:35.423Z,101553.91
2022-11-12T02:50:07.244Z,101551.25
2022-11-12T02:50:38.898Z,101551.25
2022-11-12T02:51:10.466Z,101551.25
2022-11-12T02:51:42.036Z,101558.25
2022-11-12T02:52:13.656Z,101556.47
2022-11-12T02:52:45.338Z,101559.13
2022-11-12T02:53:16.895Z,101559.97
2022-11-12T02:53:48.441Z,101556.56
2022-11-12T02:54:20.163Z,101556.56
2022-11-12T02:54:51.732Z,101562.75
2022-11-12T02:55:23.402Z,101556.47
2022-11-12T02:55:54.931Z,101554.75
2022-11-12T02:56:26.562Z,101552.09
2022-11-12T02:56:58.125Z,101545.91
2022-11-12T02:57:29.797Z,101554.66
2022-11-12T02:58:01.343Z,101549.41
2022-11-12T02:58:32.887Z,101551.25
2022-11-12T02:59:04.569Z,101555.59
2022-11-12T02:59:36.120Z,101547.59
2022-11-12T03:00:09.256Z,101546.75
2022-11-12T03:00:40.890Z,101545.91
2022-11-12T03:01:12.552Z,101538.84
2022-11-12T03:01:44.169Z,101545.91
2022-11-12T03:02:15.734Z,101547.59
2022-11-12T03:02:47.422Z,101550.25
2022-11-12T03:03:18.960Z,101546.75
2022-11-12T03:03:50.504Z,101554.75
2022-11-12T03:04:22.046Z,101552.19
2022-11-12T03:04:53.685Z,101549.53
2022-11-12T03:05:28.367Z,101546.75
2022-11-12T03:06:00.336Z,101551.25
2022-11-12T03:06:31.947Z,101542.28
2022-11-12T03:07:03.651Z,101547.59
2022-11-12T03:07:35.221Z,101543.34
2022-11-12T03:08:07.300Z,101550.47
2022-11-12T03:08:38.850Z,101547.69
2022-11-12T03:09:11.426Z,101549.53
2022-11-12T03:09:42.977Z,101546.84
2022-11-12T03:10:14.662Z,101552.94
2022-11-12T03:10:46.239Z,101552.09
2022-11-12T03:11:17.912Z,101551.25
2022-11-12T03:11:49.478Z,101547.78
2022-11-12T03:12:21.058Z,101558.34
2022-11-12T03:12:52.872Z,101554.84
2022-11-12T03:13:24.538Z,101549.53
2022-11-12T03:13:56.246Z,101553.91
2022-11-12T03:14:27.772Z,101551.25
2022-11-12T03:14:59.316Z,101552.09
2022-11-12T03:15:30.855Z,101553.91
2022-11-12T03:16:02.488Z,101555.59
2022-11-12T03:16:34.059Z,101551.25
2022-11-12T03:17:05.621Z,101550.38
2022-11-12T03:17:37.189Z,101546.84
2022-11-12T03:18:08.737Z,101546.84
2022-11-12T03:18:40.370Z,101549.53
2022-11-12T03:19:12.003Z,101547.69
2022-11-12T03:19:43.654Z,101545.03
2022-11-12T03:20:15.334Z,101544.19
2022-11-12T03:20:46.933Z,101555.69
2022-11-12T03:21:18.510Z,101551.25
2022-11-12T03:21:50.083Z,101553.91
2022-11-12T03:22:21.610Z,101555.59
2022-11-12T03:22:56.784Z,101553.91
2022-11-12T03:23:28.358Z,101561.03
2022-11-12T03:24:01.178Z,101555.69
2022-11-12T03:24:32.745Z,101560.19
2022-11-12T03:25:04.839Z,101554.84
2022-11-12T03:25:36.393Z,101556.66
2022-11-12T03:26:07.947Z,101555.69
2022-11-12T03:26:39.523Z,101567.22
2022-11-12T03:27:11.078Z,101554.84
2022-11-12T03:27:42.679Z,101562.84
2022-11-12T03:28:14.608Z,101551.25
2022-11-12T03:28:46.151Z,101553.91
2022-11-12T03:29:17.780Z,101555.69
2022-11-12T03:29:49.494Z,101546.84
2022-11-12T03:30:21.000Z,101550.38
2022-11-12T03:30:56.430Z,101547.69
2022-11-12T03:31:27.955Z,101551.25
2022-11-12T03:31:59.559Z,101549.53
2022-11-12T03:32:31.108Z,101550.38
2022-11-12T03:33:02.832Z,101553.03
2022-11-12T03:33:34.351Z,101553.03
2022-11-12T03:34:05.871Z,101550.47
2022-11-12T03:34:37.537Z,101542.47
2022-11-12T03:35:09.156Z,101550.47
2022-11-12T03:35:40.751Z,101549.41
2022-11-12T03:36:12.370Z,101549.53
2022-11-12T03:36:44.011Z,101550.38
2022-11-12T03:37:15.600Z,101549.53
2022-11-12T03:37:47.177Z,101542.38
2022-11-12T03:38:18.788Z,101541.53
2022-11-12T03:38:50.321Z,101544.19
2022-11-12T03:39:21.909Z,101551.34
2022-11-12T03:39:53.548Z,101544.19
2022-11-12T03:40:25.310Z,101544.19
2022-11-12T03:40:56.876Z,101549.53
2022-11-12T03:41:28.437Z,101542.38
2022-11-12T03:42:00.010Z,101551.34
2022-11-12T03:42:31.519Z,101548.69
2022-11-12T03:43:03.056Z,101543.25
2022-11-12T03:43:34.693Z,101549.53
2022-11-12T03:44:06.316Z,101546.84
2022-11-12T03:44:37.847Z,101550.38
2022-11-12T03:45:09.505Z,101548.56
2022-11-12T03:45:41.093Z,101544.19
2022-11-12T03:46:12.627Z,101543.34
2022-11-12T03:46:44.635Z,101549.53
2022-11-12T03:47:16.304Z,101547.78
2022-11-12T03:47:48.503Z,101547.69
2022-11-12T03:48:20.047Z,101545.13
2022-11-12T03:48:51.624Z,101543.34
2022-11-12T03:49:23.175Z,101543.25
2022-11-12T03:49:54.774Z,101539.69
2022-11-12T03:50:27.451Z,101538.84
2022-11-12T03:50:59.201Z,101537.13
2022-11-12T03:51:30.739Z,101532.59
2022-11-12T03:52:02.453Z,101531.81
2022-11-12T03:52:33.973Z,101534.47
2022-11-12T03:53:05.726Z,101533.53
2022-11-12T03:53:37.238Z,101529.13
2022-11-12T03:54:08.861Z,101533.53
2022-11-12T03:54:40.394Z,101537.13
2022-11-12T03:55:12.245Z,101530.03
2022-11-12T03:55:43.900Z,101538.84
2022-11-12T03:56:15.410Z,101537.13
2022-11-12T03:56:46.979Z,101533.53
2022-11-12T03:57:18.569Z,101530.03
2022-11-12T03:57:50.243Z,101530.03
2022-11-12T03:58:21.817Z,101529.13
2022-11-12T03:58:53.339Z,101526.47
2022-11-12T03:59:24.908Z,101528.19
2022-11-12T03:59:56.518Z,101526.38
2022-11-12T04:00:28.122Z,101522.88
2022-11-12T04:00:59.779Z,101531.81
2022-11-12T04:01:31.585Z,101527.34
2022-11-12T04:02:03.277Z,101527.34
2022-11-12T04:02:34.861Z,101531.81
2022-11-12T04:03:06.476Z,101534.47
2022-11-12T04:03:38.084Z,101526.47
2022-11-12T04:04:09.887Z,101526.47
2022-11-12T04:04:41.420Z,101531.81
2022-11-12T04:05:12.994Z,101528.19
2022-11-12T04:05:44.611Z,101531.81
2022-11-12T04:06:16.286Z,101531.72
2022-11-12T04:06:47.891Z,101522.88
2022-11-12T04:07:19.539Z,101520.19
2022-11-12T04:08:00.902Z,101535.34
2022-11-12T04:08:32.478Z,101526.47
2022-11-12T04:09:03.997Z,101530.88
2022-11-12T04:09:35.547Z,101532.69
2022-11-12T04:10:07.201Z,101530.03
2022-11-12T04:10:38.758Z,101531.81
2022-11-12T04:11:11.120Z,101533.53
2022-11-12T04:11:42.808Z,101530.03
2022-11-12T04:12:14.459Z,101530.13
2022-11-12T04:12:46.063Z,101525.63
2022-11-12T04:13:17.614Z,101522.03
2022-11-12T04:13:49.207Z,101519.47
2022-11-12T04:14:20.718Z,101522.97
2022-11-12T04:14:52.343Z,101521.16
2022-11-12T04:15:23.985Z,101514.03
2022-11-12T04:15:59.270Z,101512.31
2022-11-12T04:16:30.833Z,101514.97
2022-11-12T04:17:02.557Z,101514.13
2022-11-12T04:17:34.209Z,101513.16
2022-11-12T04:18:05.800Z,101514.13
2022-11-12T04:18:37.358Z,101515.81
2022-11-12T04:19:09.927Z,101510.50
2022-11-12T04:19:41.502Z,101512.31
2022-11-12T04:20:13.122Z,101513.16
2022-11-12T04:20:44.691Z,101514.97
2022-11-12T04:21:16.285Z,101514.03
2022-11-12T04:21:51.568Z,101509.66
2022-11-12T04:22:23.138Z,101515.81
2022-11-12T04:22:54.704Z,101521.16
2022-11-12T04:23:26.255Z,101515.81
2022-11-12T04:23:57.809Z,101516.69
2022-11-12T04:24:36.169Z,101516.69
2022-11-12T04:25:07.808Z,101509.66
2022-11-12T04:25:39.714Z,101515.81
2022-11-12T04:26:11.316Z,101515.81
2022-11-12T04:26:42.865Z,101514.97
2022-11-12T04:27:18.737Z,101513.16
2022-11-12T04:27:50.370Z,101512.22
2022-11-12T04:28:22.010Z,101513.06
2022-11-12T04:28:53.610Z,101512.22
2022-11-12T04:29:25.166Z,101506.97
2022-11-12T04:29:56.802Z,101510.50
2022-11-12T04:30:28.291Z,101500.81
2022-11-12T04:30:59.814Z,101496.31
2022-11-12T04:31:31.357Z,101505.16
2022-11-12T04:32:03.000Z,101498.97
2022-11-12T04:32:38.512Z,101504.31
2022-11-12T04:33:10.124Z,101503.47
2022-11-12T04:33:41.706Z,101501.66
2022-11-12T04:34:13.294Z,101498.13
2022-11-12T04:34:44.963Z,101497.28
2022-11-12T04:35:16.675Z,101503.47
2022-11-12T04:35:48.265Z,101497.28
2022-11-12T04:36:19.841Z,101498.13
2022-11-12T04:36:51.453Z,101500.81
2022-11-12T04:37:23.736Z,101503.47
2022-11-12T04:37:55.421Z,101496.31
2022-11-12T04:38:27.352Z,101498.97
2022-11-12T04:38:59.067Z,101498.13
2022-11-12T04:39:30.626Z,101495.56
2022-11-12T04:40:02.170Z,101502.63
2022-11-12T04:40:33.829Z,101499.81
2022-11-12T04:41:05.464Z,101499.81
2022-11-12T04:41:37.038Z,101501.66
2022-11-12T04:42:09.245Z,101494.50
2022-11-12T04:42:40.959Z,101500.81
2022-11-12T04:43:13.382Z,101498.13
2022-11-12T04:43:44.979Z,101498.13
2022-11-12T04:44:16.522Z,101498.13
2022-11-12T04:44:48.071Z,101499.81
2022-11-12T04:45:19.678Z,101503.47
2022-11-12T04:45:51.780Z,101491.09
2022-11-12T04:46:23.268Z,101497.28
2022-11-12T04:46:54.809Z,101497.28
2022-11-12T04:47:35.589Z,101500.81
2022-11-12T04:48:07.140Z,101500.81
2022-11-12T04:48:38.772Z,101493.66
2022-11-12T04:49:10.339Z,101495.47
2022-11-12T04:49:41.957Z,101499.81
2022-11-12T04:50:14.394Z,101498.97
2022-11-12T04:50:47.484Z,101491.00
2022-11-12T04:51:19.034Z,101491.97
2022-11-12T04:51:50.562Z,101492.81
2022-11-12T04:52:22.162Z,101493.66
2022-11-12T04:52:53.675Z,101491.00
2022-11-12T04:53:25.224Z,101495.38
2022-11-12T04:53:56.750Z,101491.00
2022-11-12T04:54:28.313Z,101487.47
2022-11-12T04:54:59.866Z,101495.47
2022-11-12T04:55:31.942Z,101493.66
2022-11-12T04:56:03.769Z,101494.50
2022-11-12T04:56:35.306Z,101497.28
2022-11-12T04:57:06.896Z,101482.16
2022-11-12T04:57:38.537Z,101492.81
2022-11-12T04:58:10.087Z,101495.47
2022-11-12T04:58:41.690Z,101486.72
2022-11-12T04:59:13.218Z,101485.75
2022-11-12T04:59:44.770Z,101482.16
2022-11-12T05:00:16.749Z,101484.81
2022-11-12T05:00:48.920Z,101484.91
2022-11-12T05:01:20.700Z,101485.75
2022-11-12T05:01:52.326Z,101483.09
2022-11-12T05:02:23.915Z,101489.16
2022-11-12T05:02:55.551Z,101485.75
2022-11-12T05:03:27.116Z,101481.31
2022-11-12T05:03:58.634Z,101482.16
2022-11-12T05:04:30.135Z,101482.16
2022-11-12T05:05:01.753Z,101472.44
2022-11-12T05:05:34.260Z,101484.81
2022-11-12T05:06:06.099Z,101480.44
2022-11-12T05:06:37.801Z,101478.63
2022-11-12T05:07:09.682Z,101471.50
2022-11-12T05:07:41.248Z,101472.44
2022-11-12T05:08:12.853Z,101481.31
2022-11-12T05:08:44.378Z,101475.97
2022-11-12T05:09:16.274Z,101471.50
2022-11-12T05:09:47.885Z,101473.19
2022-11-12T05:10:19.508Z,101470.50
2022-11-12T05:10:51.039Z,101469.78
2022-11-12T05:11:22.540Z,101479.47
2022-11-12T05:11:54.479Z,101476.81
2022-11-12T05:12:26.019Z,101472.44
2022-11-12T05:12:57.625Z,101482.16
2022-11-12T05:13:29.325Z,101472.44
2022-11-12T05:14:00.875Z,101472.44
2022-11-12T05:14:32.407Z,101474.16
2022-11-12T05:15:04.344Z,101474.16
2022-11-12T05:15:35.986Z,101478.50
2022-11-12T05:16:07.586Z,101478.50
2022-11-12T05:16:40.030Z,101476.81
2022-11-12T05:17:11.672Z,101471.50
2022-11-12T05:17:43.521Z,101475.97
2022-11-12T05:18:15.163Z,101472.44
2022-11-12T05:18:46.862Z,101477.75
2022-11-12T05:19:18.474Z,101477.75
2022-11-12T05:19:50.042Z,101475.09
2022-11-12T05:20:21.703Z,101479.47
2022-11-12T05:20:53.448Z,101475.00
2022-11-12T05:21:25.016Z,101476.81
2022-11-12T05:21:56.566Z,101474.25
2022-11-12T05:22:43.147Z,101480.44
2022-11-12T05:23:17.528Z,101475.09
2022-11-12T05:23:49.160Z,101470.66
2022-11-12T05:24:40.404Z,101471.59
2022-11-12T05:25:12.443Z,101472.44
2022-11-12T05:25:44.010Z,101474.16
2022-11-12T05:26:15.526Z,101469.78
2022-11-12T05:26:47.156Z,101475.97
2022-11-12T05:27:19.787Z,101480.44
2022-11-12T05:27:51.431Z,101474.16
2022-11-12T05:28:23.159Z,101472.44
2022-11-12T05:28:54.856Z,101475.09
2022-11-12T05:29:26.474Z,101471.50
2022-11-12T05:29:58.067Z,101472.34
2022-11-12T05:30:29.607Z,101468.81
2022-11-12T05:31:01.258Z,101476.81
2022-11-12T05:31:32.914Z,101475.00
2022-11-12T05:32:05.007Z,101470.66
2022-11-12T05:32:36.598Z,101477.75
2022-11-12T05:33:08.139Z,101473.41
2022-11-12T05:33:39.676Z,101469.78
2022-11-12T05:34:11.367Z,101475.09
2022-11-12T05:34:42.936Z,101470.75
2022-11-12T05:35:14.597Z,101472.44
2022-11-12T05:35:46.231Z,101474.25
2022-11-12T05:36:17.895Z,101474.25
2022-11-12T05:36:49.612Z,101476.06
2022-11-12T05:37:21.104Z,101480.53
2022-11-12T05:37:52.770Z,101480.44
2022-11-12T05:38:24.664Z,101469.78
2022-11-12T05:38:56.365Z,101467.09
2022-11-12T05:39:27.981Z,101477.75
2022-11-12T05:39:59.487Z,101479.59
2022-11-12T05:40:31.011Z,101476.91
2022-11-12T05:41:02.608Z,101475.09
2022-11-12T05:41:51.409Z,101468.09
2022-11-12T05:42:25.864Z,101471.59
2022-11-12T05:42:57.469Z,101474.25
2022-11-12T05:43:29.043Z,101477.75
2022-11-12T05:44:00.595Z,101474.25
2022-11-12T05:44:32.166Z,101471.59
2022-11-12T05:45:03.885Z,101477.75
2022-11-12T05:45:35.448Z,101476.81
2022-11-12T05:46:07.051Z,101467.09
2022-11-12T05:46:38.633Z,101474.16
2022-11-12T05:47:10.278Z,101471.59
2022-11-12T05:47:41.812Z,101478.75
2022-11-12T05:48:13.426Z,101468.94
2022-11-12T05:48:45.046Z,101473.41
2022-11-12T05:49:16.929Z,101473.41
2022-11-12T05:49:48.543Z,101475.97
2022-11-12T05:50:20.118Z,101479.59
2022-11-12T05:51:11.899Z,101474.34
2022-11-12T05:51:43.748Z,101477.88
2022-11-12T05:52:15.434Z,101477.88
2022-11-12T05:52:47.023Z,101474.34
2022-11-12T05:53:18.599Z,101473.41
2022-11-12T05:53:50.205Z,101468.09
2022-11-12T05:54:21.795Z,101477.75
2022-11-12T05:54:53.301Z,101477.88
2022-11-12T05:55:24.889Z,101480.44
2022-11-12T05:56:02.618Z,101465.41
2022-11-12T05:56:34.338Z,101477.75
2022-11-12T05:57:05.913Z,101468.94
2022-11-12T05:57:37.568Z,101467.09
2022-11-12T05:58:09.093Z,101467.09
2022-11-12T05:58:40.634Z,101468.09
2022-11-12T05:59:12.592Z,101473.41
2022-11-12T05:59:44.691Z,101467.97
2022-11-12T06:00:16.613Z,101473.31
2022-11-12T06:00:48.159Z,101465.41
2022-11-12T06:01:19.739Z,101476.06
2022-11-12T06:01:51.335Z,101468.94
2022-11-12T06:02:22.963Z,101473.31
2022-11-12T06:02:57.134Z,101467.09
2022-11-12T06:03:28.691Z,101467.09
2022-11-12T06:04:00.270Z,101469.78
2022-11-12T06:04:31.881Z,101473.41
2022-11-12T06:05:03.688Z,101466.25
2022-11-12T06:05:35.209Z,101468.94
2022-11-12T06:06:06.991Z,101467.22